Time;durP1;ratioP1;P1;durP2;ratioP2;P2;SDS_P1;SDS_P2;PMS_P1;PMS_P2;Temp;Humidity;BMP_temperature;BMP_pressure;BME280_temperature;BME280_humidity;BME280_pressure;Samples;Min_cycle;Max_cycle;Signal;HPM_P1;HPM_P2
2020/12/04 00:00:55;;;;;;;2.5;1.7;;;;;;;;;;;;;
2020/12/04 00:03:21;;;;;;;1.1;1;;;;;;;;;;;;;
2020/12/04 00:05:47;;;;;;;1.3;1;;;;;;;;;;;;;
2020/12/04 00:08:12;;;;;;;2.1;1.6;;;;;;;;;;;;;
2020/12/04 00:10:41;;;;;;;5.2;2.4;;;;;;;;;;;;;
2020/12/04 00:13:06;;;;;;;1.5;1.4;;;;;;;;;;;;;
2020/12/04 00:15:32;;;;;;;2.5;1.1;;;;;;;;;;;;;
2020/12/04 00:17:56;;;;;;;1.5;1.2;;;;;;;;;;;;;
2020/12/04 00:20:21;;;;;;;2;1.5;;;;;;;;;;;;;
2020/12/04 00:22:48;;;;;;;1.2;0.9;;;;;;;;;;;;;
2020/12/04 00:25:15;;;;;;;3.5;2;;;;;;;;;;;;;
2020/12/04 00:27:40;;;;;;;1.2;1.1;;;;;;;;;;;;;
2020/12/04 00:30:05;;;;;;;1.1;1;;;;;;;;;;;;;
2020/12/04 00:32:31;;;;;;;2.3;1.4;;;;;;;;;;;;;
2020/12/04 00:34:57;;;;;;;1.6;1.4;;;;;;;;;;;;;
2020/12/04 00:37:22;;;;;;;1.6;1.2;;;;;;;;;;;;;
2020/12/04 00:39:47;;;;;;;2.6;1.5;;;;;;;;;;;;;
2020/12/04 00:42:13;;;;;;;1.6;1.2;;;;;;;;;;;;;
2020/12/04 00:44:38;;;;;;;0.9;0.9;;;;;;;;;;;;;
2020/12/04 00:47:03;;;;;;;1.7;1.3;;;;;;;;;;;;;
2020/12/04 00:49:29;;;;;;;2.1;1.9;;;;;;;;;;;;;
2020/12/04 00:51:54;;;;;;;1.7;1.5;;;;;;;;;;;;;
2020/12/04 00:54:20;;;;;;;1.4;1.1;;;;;;;;;;;;;
2020/12/04 00:56:45;;;;;;;2.5;0.9;;;;;;;;;;;;;
2020/12/04 00:59:10;;;;;;;2;1.2;;;;;;;;;;;;;
2020/12/04 01:01:37;;;;;;;2.5;1.1;;;;;;;;;;;;;
2020/12/04 01:04:02;;;;;;;3.4;1.6;;;;;;;;;;;;;
2020/12/04 01:06:28;;;;;;;1.7;1.2;;;;;;;;;;;;;
2020/12/04 01:08:53;;;;;;;0.6;0.6;;;;;;;;;;;;;
2020/12/04 01:11:18;;;;;;;5.8;1.2;;;;;;;;;;;;;
2020/12/04 01:13:43;;;;;;;0.9;0.8;;;;;;;;;;;;;
2020/12/04 01:16:10;;;;;;;0.9;0.9;;;;;;;;;;;;;
2020/12/04 01:18:34;;;;;;;1.3;1.2;;;;;;;;;;;;;
2020/12/04 01:21:00;;;;;;;2;1.7;;;;;;;;;;;;;
2020/12/04 01:23:25;;;;;;;1.1;0.9;;;;;;;;;;;;;
2020/12/04 01:25:51;;;;;;;2.3;0.9;;;;;;;;;;;;;
2020/12/04 01:28:16;;;;;;;1.7;1;;;;;;;;;;;;;
2020/12/04 01:30:43;;;;;;;1.5;1.2;;;;;;;;;;;;;
2020/12/04 01:33:08;;;;;;;2.1;1.6;;;;;;;;;;;;;
2020/12/04 01:35:34;;;;;;;1.8;1.1;;;;;;;;;;;;;
2020/12/04 01:37:59;;;;;;;2.4;1.3;;;;;;;;;;;;;
2020/12/04 01:40:25;;;;;;;1.4;1.1;;;;;;;;;;;;;
2020/12/04 01:42:50;;;;;;;2;0.6;;;;;;;;;;;;;
2020/12/04 01:45:16;;;;;;;0.4;0.4;;;;;;;;;;;;;
2020/12/04 01:47:41;;;;;;;0.3;0.3;;;;;;;;;;;;;
2020/12/04 01:50:08;;;;;;;2.1;0.8;;;;;;;;;;;;;
2020/12/04 01:52:33;;;;;;;0.6;0.4;;;;;;;;;;;;;
2020/12/04 01:54:58;;;;;;;0.7;0.7;;;;;;;;;;;;;
2020/12/04 01:57:23;;;;;;;2.4;1.5;;;;;;;;;;;;;
2020/12/04 01:59:52;;;;;;;2;0.9;;;;;;;;;;;;;
2020/12/04 02:02:20;;;;;;;1.1;1;;;;;;;;;;;;;
2020/12/04 02:04:43;;;;;;;1.8;0.9;;;;;;;;;;;;;
2020/12/04 02:07:06;;;;;;;1.5;1.1;;;;;;;;;;;;;
2020/12/04 02:09:35;;;;;;;0.4;0.4;;;;;;;;;;;;;
2020/12/04 02:12:02;;;;;;;0.6;0.6;;;;;;;;;;;;;
2020/12/04 02:14:24;;;;;;;1.2;0.4;;;;;;;;;;;;;
2020/12/04 02:16:49;;;;;;;0.4;0.4;;;;;;;;;;;;;
2020/12/04 02:19:14;;;;;;;0.7;0.6;;;;;;;;;;;;;
2020/12/04 02:21:40;;;;;;;0.3;0.3;;;;;;;;;;;;;
2020/12/04 02:24:05;;;;;;;1.1;0.6;;;;;;;;;;;;;
2020/12/04 02:26:32;;;;;;;0.8;0.3;;;;;;;;;;;;;
2020/12/04 02:28:57;;;;;;;0.8;0.6;;;;;;;;;;;;;
2020/12/04 02:31:24;;;;;;;0.4;0.4;;;;;;;;;;;;;
2020/12/04 02:33:49;;;;;;;1.8;0.8;;;;;;;;;;;;;
2020/12/04 02:36:14;;;;;;;2.9;0.7;;;;;;;;;;;;;
2020/12/04 02:38:40;;;;;;;0.4;0.4;;;;;;;;;;;;;
2020/12/04 02:41:07;;;;;;;0.7;0.7;;;;;;;;;;;;;
2020/12/04 02:43:32;;;;;;;1.1;0.9;;;;;;;;;;;;;
2020/12/04 02:45:57;;;;;;;1.4;0.5;;;;;;;;;;;;;
2020/12/04 02:48:22;;;;;;;0.7;0.5;;;;;;;;;;;;;
2020/12/04 02:50:48;;;;;;;2.2;0.5;;;;;;;;;;;;;
2020/12/04 02:53:13;;;;;;;0.5;0.5;;;;;;;;;;;;;
2020/12/04 02:55:38;;;;;;;0.5;0.5;;;;;;;;;;;;;
2020/12/04 02:58:03;;;;;;;0.7;0.6;;;;;;;;;;;;;
2020/12/04 03:00:28;;;;;;;0.6;0.6;;;;;;;;;;;;;
2020/12/04 03:02:53;;;;;;;2.8;0.7;;;;;;;;;;;;;
2020/12/04 03:05:18;;;;;;;1.7;0.9;;;;;;;;;;;;;
2020/12/04 03:07:45;;;;;;;1.5;0.8;;;;;;;;;;;;;
2020/12/04 03:10:10;;;;;;;0.4;0.4;;;;;;;;;;;;;
2020/12/04 03:12:35;;;;;;;3.3;1.2;;;;;;;;;;;;;
2020/12/04 03:15:01;;;;;;;0.3;0.3;;;;;;;;;;;;;
2020/12/04 03:17:27;;;;;;;2.4;1.1;;;;;;;;;;;;;
2020/12/04 03:19:52;;;;;;;3.4;1;;;;;;;;;;;;;
2020/12/04 03:22:18;;;;;;;0.8;0.6;;;;;;;;;;;;;
2020/12/04 03:24:43;;;;;;;0.6;0.6;;;;;;;;;;;;;
2020/12/04 03:27:09;;;;;;;0.8;0.7;;;;;;;;;;;;;
2020/12/04 03:29:34;;;;;;;0.6;0.6;;;;;;;;;;;;;
2020/12/04 03:32:01;;;;;;;3.5;0.7;;;;;;;;;;;;;
2020/12/04 03:34:26;;;;;;;0.7;0.5;;;;;;;;;;;;;
2020/12/04 03:36:52;;;;;;;1.7;1.2;;;;;;;;;;;;;
2020/12/04 03:39:17;;;;;;;1.1;0.8;;;;;;;;;;;;;
2020/12/04 03:41:43;;;;;;;0.4;0.4;;;;;;;;;;;;;
2020/12/04 03:44:08;;;;;;;3.3;0.8;;;;;;;;;;;;;
2020/12/04 03:46:34;;;;;;;0.4;0.4;;;;;;;;;;;;;
2020/12/04 03:48:59;;;;;;;0.6;0.4;;;;;;;;;;;;;
2020/12/04 03:51:25;;;;;;;0.5;0.5;;;;;;;;;;;;;
2020/12/04 03:53:50;;;;;;;1.6;1.2;;;;;;;;;;;;;
2020/12/04 03:56:17;;;;;;;1.4;0.8;;;;;;;;;;;;;
2020/12/04 03:58:42;;;;;;;1.7;0.9;;;;;;;;;;;;;
2020/12/04 04:02:30;;;;;;;0.9;0.9;;;;;;;0.37;86.87402;914.6038;;;;
2020/12/04 04:04:55;;;;;;;0.7;0.5;;;;;;;0.36;86.96094;914.5137;;;;
2020/12/04 04:07:22;;;;;;;2.4;1.2;;;;;;;0.37;87.1748;914.5623;;;;
2020/12/04 04:09:47;;;;;;;4.4;0.7;;;;;;;0.48;86.71777;914.5683;;;;
2020/12/04 04:12:16;;;;;;;0.9;0.6;;;;;;;0.43;86.42969;914.6063;;;;
2020/12/04 04:14:42;;;;;;;1.5;0.7;;;;;;;0.34;86.96875;914.6114;;;;
2020/12/04 04:17:10;;;;;;;2;0.6;;;;;;;0.31;87.74316;914.5588;;;;
2020/12/04 04:19:35;;;;;;;0.4;0.4;;;;;;;0.39;87.50391;914.5658;;;;
2020/12/04 04:22:03;;;;;;;3.5;0.6;;;;;;;0.46;87.41699;914.4241;;;;
2020/12/04 04:24:28;;;;;;;0.5;0.5;;;;;;;0.59;86.93164;914.5081;;;;
2020/12/04 04:26:59;;;;;;;1;0.6;;;;;;;0.52;86.80469;914.5913;;;;
2020/12/04 04:29:24;;;;;;;0.4;0.4;;;;;;;0.44;87.43652;914.6063;;;;
2020/12/04 04:31:52;;;;;;;0.4;0.3;;;;;;;0.47;87.89941;914.5706;;;;
2020/12/04 04:34:17;;;;;;;0.4;0.4;;;;;;;0.6;87.625;914.4861;;;;
2020/12/04 04:36:45;;;;;;;0.4;0.4;;;;;;;0.76;86.72168;914.4047;;;;
2020/12/04 04:39:15;;;;;;;0.4;0.4;;;;;;;0.81;86.12793;914.3731;;;;
2020/12/04 04:41:43;;;;;;;0.5;0.4;;;;;;;0.81;86.28418;914.421;;;;
2020/12/04 04:44:13;;;;;;;0.3;0.3;;;;;;;0.8;86.36035;914.372;;;;
2020/12/04 04:46:38;;;;;;;1.1;0.6;;;;;;;0.74;86.69531;914.3356;;;;
2020/12/04 04:49:06;;;;;;;1.3;0.9;;;;;;;0.6;87.58008;914.3848;;;;
2020/12/04 04:51:31;;;;;;;1.7;1.3;;;;;;;0.59;87.74609;914.4031;;;;
2020/12/04 04:53:59;;;;;;;1.5;1.2;;;;;;;0.6;87.87012;914.3516;;;;
2020/12/04 04:56:24;;;;;;;3.3;1.4;;;;;;;0.52;88.35547;914.4105;;;;
2020/12/04 04:58:51;;;;;;;1.8;1.3;;;;;;;0.53;88.14355;914.3979;;;;
2020/12/04 05:01:17;;;;;;;1.5;1.1;;;;;;;0.67;87.95215;914.2662;;;;
2020/12/04 05:03:41;;;;;;;0.9;0.9;;;;;;;0.69;87.37598;914.2319;;;;
2020/12/04 05:06:07;;;;;;;2;0.9;;;;;;;0.5;88.39648;914.408;;;;
2020/12/04 05:08:33;;;;;;;0.7;0.7;;;;;;;0.64;87.73242;914.432;;;;
2020/12/04 05:10:58;;;;;;;4.6;1;;;;;;;0.7;86.9541;914.4645;;;;
2020/12/04 05:13:24;;;;;;;2.3;0.9;;;;;;;0.75;86.44043;914.4609;;;;
2020/12/04 05:15:50;;;;;;;1;0.6;;;;;;;0.53;87.36426;914.5006;;;;
2020/12/04 05:18:15;;;;;;;7.4;2.2;;;;;;;0.51;87.82715;914.6046;;;;
2020/12/04 05:20:41;;;;;;;1.6;1.3;;;;;;;0.49;88.10254;914.6434;;;;
2020/12/04 05:23:06;;;;;;;2.1;1.4;;;;;;;0.45;88.08398;914.6705;;;;
2020/12/04 05:25:34;;;;;;;2.3;1;;;;;;;0.48;87.91309;914.7953;;;;
2020/12/04 05:27:59;;;;;;;1.9;1.3;;;;;;;0.55;87.72559;914.7942;;;;
2020/12/04 05:30:24;;;;;;;3.7;1.1;;;;;;;0.55;87.37988;914.6816;;;;
2020/12/04 05:32:51;;;;;;;4;1.3;;;;;;;0.45;87.54883;914.6181;;;;
2020/12/04 05:35:16;;;;;;;4.4;1.8;;;;;;;0.37;87.83301;914.4434;;;;
2020/12/04 05:37:43;;;;;;;1.9;1.1;;;;;;;0.37;88.22266;914.3699;;;;
2020/12/04 05:40:08;;;;;;;1.1;0.9;;;;;;;0.35;88.1748;914.2687;;;;
2020/12/04 05:42:33;;;;;;;1.3;0.8;;;;;;;0.36;87.73047;914.2438;;;;
2020/12/04 05:44:59;;;;;;;1.4;0.9;;;;;;;0.37;87.7207;914.0529;;;;
2020/12/04 05:47:24;;;;;;;1.2;1;;;;;;;0.23;88.14063;914.2615;;;;
2020/12/04 05:49:50;;;;;;;7.7;2.8;;;;;;;0.32;88.22461;914.2372;;;;
2020/12/04 05:52:20;;;;;;;1.4;1.2;;;;;;;0.32;88.3584;914.0698;;;;
2020/12/04 05:54:45;;;;;;;1.7;1.2;;;;;;;0.4;87.33887;914.1834;;;;
2020/12/04 05:57:12;;;;;;;2.6;1.2;;;;;;;0.49;86.92188;914.1778;;;;
2020/12/04 05:59:38;;;;;;;4.5;0.9;;;;;;;0.57;86.92773;914.3631;;;;
2020/12/04 06:02:03;;;;;;;1.3;0.6;;;;;;;0.47;87.3623;914.2833;;;;
2020/12/04 06:04:33;;;;;;;0.6;0.6;;;;;;;0.59;87.11035;914.2473;;;;
2020/12/04 06:07:01;;;;;;;0.7;0.5;;;;;;;0.65;86.73047;914.198;;;;
2020/12/04 06:09:26;;;;;;;3.6;1.5;;;;;;;0.55;86.54297;914.1124;;;;
2020/12/04 06:11:52;;;;;;;1.5;1.3;;;;;;;0.59;85.78223;914.0783;;;;
2020/12/04 06:14:19;;;;;;;2.7;1.4;;;;;;;0.64;85.20215;914.2003;;;;
2020/12/04 06:16:44;;;;;;;1.9;1.2;;;;;;;0.7;84.86719;914.1497;;;;
2020/12/04 06:19:09;;;;;;;2.9;0.4;;;;;;;0.67;84.30371;914.1222;;;;
2020/12/04 06:21:34;;;;;;;2.3;1;;;;;;;0.85;83.25684;914.2301;;;;
2020/12/04 06:23:59;;;;;;;1.1;1;;;;;;;0.98;83.57227;914.1987;;;;
2020/12/04 06:26:24;;;;;;;2.1;1.3;;;;;;;0.88;84.3457;914.123;;;;
2020/12/04 06:28:51;;;;;;;1.1;0.7;;;;;;;0.82;84.79004;914.0928;;;;
2020/12/04 06:31:16;;;;;;;0.5;0.4;;;;;;;0.87;84.47559;914.3038;;;;
2020/12/04 06:33:42;;;;;;;1.6;0.6;;;;;;;0.91;84.04004;914.3017;;;;
2020/12/04 06:36:08;;;;;;;0.5;0.5;;;;;;;1.07;82.99805;914.2731;;;;
2020/12/04 06:38:34;;;;;;;1.4;1.1;;;;;;;1.18;83.1875;914.128;;;;
2020/12/04 06:41:07;;;;;;;1.8;1.1;;;;;;;1.05;83.83398;914.197;;;;
2020/12/04 06:43:32;;;;;;;1;0.9;;;;;;;1.15;81.96387;914.1733;;;;
2020/12/04 06:45:58;;;;;;;2.1;1.1;;;;;;;1.34;81.75488;914.2419;;;;
2020/12/04 06:48:23;;;;;;;0.8;0.8;;;;;;;1.29;82.26953;914.2745;;;;
2020/12/04 06:50:48;;;;;;;1.6;1.1;;;;;;;1.22;82.5127;914.3652;;;;
2020/12/04 06:53:13;;;;;;;1.2;1;;;;;;;1.25;82.53125;914.2767;;;;
2020/12/04 06:55:40;;;;;;;2.9;0.9;;;;;;;1.23;82.97461;914.3488;;;;
2020/12/04 06:58:05;;;;;;;0.7;0.7;;;;;;;1.18;82.89844;914.3176;;;;
2020/12/04 07:00:32;;;;;;;1.5;1;;;;;;;1.13;82.95508;914.301;;;;
2020/12/04 07:02:59;;;;;;;1.5;0.7;;;;;;;0.92;84.21875;914.3127;;;;
2020/12/04 07:05:24;;;;;;;0.6;0.6;;;;;;;0.76;85.21484;914.3373;;;;
2020/12/04 07:07:49;;;;;;;1.6;1.1;;;;;;;0.82;85.39258;914.2087;;;;
2020/12/04 07:10:19;;;;;;;0.7;0.5;;;;;;;1.03;85.74902;914.305;;;;
2020/12/04 07:12:46;;;;;;;6.3;1.2;;;;;;;1.22;84.78027;914.2358;;;;
2020/12/04 07:15:11;;;;;;;1.3;1;;;;;;;1.25;83.82715;914.2736;;;;
2020/12/04 07:17:36;;;;;;;1.7;0.8;;;;;;;1.35;82.62891;914.3211;;;;
2020/12/04 07:20:01;;;;;;;0.7;0.7;;;;;;;1.49;81.65039;914.336;;;;
2020/12/04 07:22:27;;;;;;;3.2;0.7;;;;;;;1.61;80.75684;914.245;;;;
2020/12/04 07:24:52;;;;;;;1.4;1;;;;;;;1.6;80.7207;914.2494;;;;
2020/12/04 07:27:17;;;;;;;1.4;1;;;;;;;1.56;81.02734;914.225;;;;
2020/12/04 07:29:43;;;;;;;3;1.5;;;;;;;1.66;80.58594;914.2852;;;;
2020/12/04 07:32:08;;;;;;;1;0.9;;;;;;;1.6;80.37305;914.1474;;;;
2020/12/04 07:34:38;;;;;;;1.1;0.6;;;;;;;1.78;79.41113;914.1937;;;;
2020/12/04 07:37:00;;;;;;;0.7;0.5;;;;;;;2.05;79.25098;914.1871;;;;
2020/12/04 07:39:26;;;;;;;1.4;0.6;;;;;;;2.31;77.69727;914.1853;;;;
2020/12/04 07:41:52;;;;;;;3.6;1.7;;;;;;;2.4;77.96191;914.1948;;;;
2020/12/04 07:44:20;;;;;;;1.7;1.4;;;;;;;2.45;78.27246;914.2603;;;;
2020/12/04 07:46:45;;;;;;;2.1;1.6;;;;;;;2.18;79.04004;914.3003;;;;
2020/12/04 07:49:10;;;;;;;2.5;1.4;;;;;;;2.06;78.60352;914.37;;;;
2020/12/04 07:51:35;;;;;;;4.4;1.9;;;;;;;1.97;79.65039;914.4252;;;;
2020/12/04 07:54:00;;;;;;;1.7;1.3;;;;;;;1.93;80.13379;914.3215;;;;
2020/12/04 07:56:26;;;;;;;2.1;0.9;;;;;;;1.94;80.1377;914.3223;;;;
2020/12/04 07:58:51;;;;;;;1.7;1.1;;;;;;;2.12;79.99121;914.3912;;;;
2020/12/04 08:01:15;;;;;;;0.8;0.6;;;;;;;2.41;77.98438;914.4236;;;;
2020/12/04 08:03:42;;;;;;;1;0.9;;;;;;;2.53;77.99609;914.3883;;;;
2020/12/04 08:06:07;;;;;;;1.6;1.1;;;;;;;2.44;78.43848;914.3976;;;;
2020/12/04 08:08:32;;;;;;;1;0.8;;;;;;;2.19;79.36621;914.3356;;;;
2020/12/04 08:11:02;;;;;;;4;1.5;;;;;;;2.14;80.10742;914.3803;;;;
2020/12/04 08:13:29;;;;;;;3.1;1.5;;;;;;;2.2;80.62207;914.3702;;;;
2020/12/04 08:15:54;;;;;;;1.7;1;;;;;;;2.34;80.72656;914.34;;;;
2020/12/04 08:18:19;;;;;;;3;1.4;;;;;;;2.43;80.05078;914.3098;;;;
2020/12/04 08:20:46;;;;;;;1.5;1.2;;;;;;;2.61;79.89258;914.3367;;;;
2020/12/04 08:23:11;;;;;;;1.5;1.1;;;;;;;2.72;79.24121;914.2433;;;;
2020/12/04 08:25:37;;;;;;;1.8;0.9;;;;;;;3.01;78.37598;914.1735;;;;
2020/12/04 08:28:03;;;;;;;4.7;2.5;;;;;;;3.35;77.24707;914.1289;;;;
2020/12/04 08:30:27;;;;;;;7.3;2.3;;;;;;;3.8;75.24023;914.116;;;;
2020/12/04 08:32:52;;;;;;;5.9;2.6;;;;;;;4.71;73.11426;914.158;;;;
2020/12/04 08:35:17;;;;;;;3;1.4;;;;;;;5.12;68.87695;914.2527;;;;
2020/12/04 08:37:42;;;;;;;2.3;1.4;;;;;;;5.11;68.52539;914.1834;;;;
2020/12/04 08:40:07;;;;;;;4.4;1.4;;;;;;;5.1;68.66016;914.1213;;;;
2020/12/04 08:42:33;;;;;;;1.7;1.2;;;;;;;5.01;68.52148;914.0377;;;;
2020/12/04 08:44:59;;;;;;;1.7;1;;;;;;;4.65;69.75781;914.0364;;;;
2020/12/04 08:47:24;;;;;;;2.2;1.2;;;;;;;4.5;71.27637;913.9939;;;;
2020/12/04 08:49:49;;;;;;;1.7;0.9;;;;;;;4.62;71.64453;913.8246;;;;
2020/12/04 08:52:14;;;;;;;0.8;0.8;;;;;;;4.64;71.97461;913.7992;;;;
2020/12/04 08:54:39;;;;;;;2.8;1.4;;;;;;;4.42;72.70313;913.744;;;;
2020/12/04 08:57:05;;;;;;;4.4;2;;;;;;;4.41;74.19922;913.633;;;;
2020/12/04 08:59:30;;;;;;;2.3;1.4;;;;;;;4.63;74.33789;913.6511;;;;
2020/12/04 09:01:59;;;;;;;2.7;1.7;;;;;;;4.81;73.7627;913.7704;;;;
2020/12/04 09:04:28;;;;;;;2.4;0.9;;;;;;;4.44;73.66504;913.728;;;;
2020/12/04 09:06:53;;;;;;;3.7;1.6;;;;;;;4.57;74.06934;913.6947;;;;
2020/12/04 09:09:18;;;;;;;7.9;1.8;;;;;;;4.77;73.98047;913.6711;;;;
2020/12/04 09:11:43;;;;;;;4.9;2;;;;;;;4.92;74.5459;913.7087;;;;
2020/12/04 09:14:09;;;;;;;3.5;1.8;;;;;;;5.03;72.63867;913.7693;;;;
2020/12/04 09:16:34;;;;;;;2.6;1.6;;;;;;;5.07;72.45313;913.7816;;;;
2020/12/04 09:18:59;;;;;;;1.4;1.1;;;;;;;5.08;72.24121;913.6696;;;;
2020/12/04 09:21:24;;;;;;;2.7;1.3;;;;;;;4.91;72.39258;913.7601;;;;
2020/12/04 09:23:51;;;;;;;1.6;1;;;;;;;4.87;71.89063;913.7367;;;;
2020/12/04 09:26:16;;;;;;;5.4;1.2;;;;;;;5;72.2832;913.6764;;;;
2020/12/04 09:28:42;;;;;;;2.1;0.9;;;;;;;5.12;72.0459;913.5666;;;;
2020/12/04 09:31:07;;;;;;;0.8;0.8;;;;;;;5.07;71.47168;913.5105;;;;
2020/12/04 09:33:34;;;;;;;1.9;0.9;;;;;;;5.1;71.47852;913.4738;;;;
2020/12/04 09:35:59;;;;;;;2.3;0.9;;;;;;;5.04;71.43262;913.502;;;;
2020/12/04 09:38:26;;;;;;;0.7;0.7;;;;;;;4.98;71.77344;913.4558;;;;
2020/12/04 09:40:54;;;;;;;3.2;0.8;;;;;;;4.94;72.20703;913.353;;;;
2020/12/04 09:43:20;;;;;;;0.8;0.8;;;;;;;4.96;72.0957;913.3812;;;;
2020/12/04 09:45:45;;;;;;;1.1;0.9;;;;;;;5.12;71.69434;913.3348;;;;
2020/12/04 09:48:12;;;;;;;1.2;0.6;;;;;;;5.22;72.13965;913.4066;;;;
2020/12/04 09:50:37;;;;;;;0.5;0.5;;;;;;;5.25;71.2666;913.4038;;;;
2020/12/04 09:53:03;;;;;;;0.8;0.6;;;;;;;5.38;71.06348;913.2358;;;;
2020/12/04 09:55:28;;;;;;;0.8;0.7;;;;;;;5.57;70.27051;913.1091;;;;
2020/12/04 09:57:56;;;;;;;1.7;0.8;;;;;;;5.71;69.2207;913.019;;;;
2020/12/04 10:00:21;;;;;;;3;0.7;;;;;;;5.66;68.12793;912.9866;;;;
2020/12/04 10:02:51;;;;;;;2.9;1.3;;;;;;;5.77;69.00488;912.7822;;;;
2020/12/04 10:05:16;;;;;;;2.7;1.2;;;;;;;5.89;67.82617;912.7501;;;;
2020/12/04 10:07:42;;;;;;;1.3;0.9;;;;;;;5.93;66.09277;912.7253;;;;
2020/12/04 10:10:07;;;;;;;0.6;0.6;;;;;;;5.86;65.70898;912.7773;;;;
2020/12/04 10:12:33;;;;;;;0.5;0.3;;;;;;;5.91;65.88672;912.7784;;;;
2020/12/04 10:15:02;;;;;;;1.5;0.4;;;;;;;6.01;65.26758;912.649;;;;
2020/12/04 10:17:27;;;;;;;5.1;1;;;;;;;6.13;63.50098;912.4886;;;;
2020/12/04 10:19:56;;;;;;;1.4;0.6;;;;;;;6.29;61.13965;912.3995;;;;
2020/12/04 10:22:21;;;;;;;0.8;0.6;;;;;;;6.52;62.71094;912.4559;;;;
2020/12/04 10:24:48;;;;;;;1.6;1.2;;;;;;;6.65;61.69043;912.4617;;;;
2020/12/04 10:27:13;;;;;;;2.1;0.9;;;;;;;6.73;60.29785;912.4042;;;;
2020/12/04 10:29:39;;;;;;;3.1;1.2;;;;;;;6.83;61.14941;912.4524;;;;
2020/12/04 10:32:06;;;;;;;3.7;1;;;;;;;6.9;62.06445;912.4417;;;;
2020/12/04 10:34:31;;;;;;;2;1.3;;;;;;;6.81;62.25488;912.4257;;;;
2020/12/04 10:36:58;;;;;;;1;0.7;;;;;;;6.7;61.54883;912.2189;;;;
2020/12/04 10:39:23;;;;;;;1.5;0.7;;;;;;;6.68;61.86426;912.1908;;;;
2020/12/04 10:41:50;;;;;;;4.8;2.5;;;;;;;6.83;61.21875;912.2064;;;;
2020/12/04 10:44:15;;;;;;;4.6;3.4;;;;;;;6.96;61.38379;912.1992;;;;
2020/12/04 10:46:42;;;;;;;1.6;1.2;;;;;;;6.77;62.21582;912.1298;;;;
2020/12/04 10:49:07;;;;;;;3.7;1.7;;;;;;;6.75;57.68555;912.1603;;;;
2020/12/04 10:51:33;;;;;;;8.3;2.1;;;;;;;6.98;58.74805;912.1047;;;;
2020/12/04 10:53:59;;;;;;;4.9;2.2;;;;;;;7.21;60.43359;912.0975;;;;
2020/12/04 10:56:25;;;;;;;45.8;19;;;;;;;7.29;59.16406;911.9677;;;;
2020/12/04 10:58:50;;;;;;;7.9;4.6;;;;;;;7.13;61.21484;911.9706;;;;
2020/12/04 11:01:27;;;;;;;1.4;1.1;;;;;;;7.1;61.9248;911.9349;;;;
2020/12/04 11:05:30;;;;;;;8.6;1.9;;;;;;;7.27;62.20801;911.8883;;;;
2020/12/04 11:06:09;;;;;;;1.5;1;;;;;;;7.32;61.74023;911.812;;;;
2020/12/04 11:08:34;;;;;;;6.5;4;;;;;;;7.43;61.31348;911.7569;;;;
2020/12/04 11:11:02;;;;;;;2.4;1.2;;;;;;;7.59;61.54199;911.7366;;;;
2020/12/04 11:13:30;;;;;;;2;1.4;;;;;;;7.69;61.47461;911.8265;;;;
2020/12/04 11:15:57;;;;;;;23.8;9.8;;;;;;;7.73;59.65527;911.7528;;;;
2020/12/04 11:18:23;;;;;;;6.1;3.8;;;;;;;7.63;60.45801;911.7122;;;;
2020/12/04 11:20:48;;;;;;;4.8;2.3;;;;;;;7.62;59.4707;911.6174;;;;
2020/12/04 11:23:15;;;;;;;3.1;1.6;;;;;;;7.46;59.4707;911.6262;;;;
2020/12/04 11:25:40;;;;;;;14.7;7.2;;;;;;;7.5;59.57813;911.6301;;;;
2020/12/04 11:28:06;;;;;;;5.1;2.3;;;;;;;7.59;58.86328;911.6647;;;;
2020/12/04 11:30:32;;;;;;;1.3;1;;;;;;;7.48;60.51563;911.6401;;;;
2020/12/04 11:32:58;;;;;;;1.6;1.1;;;;;;;7.45;60.7627;911.5538;;;;
2020/12/04 11:35:23;;;;;;;4;1.5;;;;;;;7.55;61.03711;911.3828;;;;
2020/12/04 11:37:49;;;;;;;3.3;1.8;;;;;;;7.66;61.83496;911.4708;;;;
2020/12/04 11:40:14;;;;;;;4.7;2.3;;;;;;;7.77;61.46582;911.3961;;;;
2020/12/04 11:42:43;;;;;;;1.5;1;;;;;;;7.86;55.67969;911.3254;;;;
2020/12/04 11:45:07;;;;;;;5.5;1.7;;;;;;;8.03;55.49609;911.2773;;;;
2020/12/04 11:47:33;;;;;;;3.6;1.6;;;;;;;8.14;57.19141;911.3965;;;;
2020/12/04 11:50:03;;;;;;;3.3;1.5;;;;;;;8.12;58.4834;911.4548;;;;
2020/12/04 11:52:28;;;;;;;1.6;1.2;;;;;;;7.84;59.01172;911.5184;;;;
2020/12/04 11:54:54;;;;;;;1.4;1;;;;;;;7.62;60.47949;911.5756;;;;
2020/12/04 11:57:22;;;;;;;1.6;1;;;;;;;7.73;60.38086;911.5897;;;;
2020/12/04 11:59:46;;;;;;;1.5;1.1;;;;;;;7.66;60.71191;911.6688;;;;
2020/12/04 12:02:16;;;;;;;15.5;3.9;;;;;;;7.57;61.83203;911.6556;;;;
2020/12/04 12:04:44;;;;;;;4.5;2.3;;;;;;;7.68;61.49707;911.6083;;;;
2020/12/04 12:07:09;;;;;;;1.2;0.9;;;;;;;7.72;60.50586;911.6025;;;;
2020/12/04 12:09:39;;;;;;;1.2;1;;;;;;;7.8;59.46094;911.626;;;;
2020/12/04 12:12:04;;;;;;;16.3;6.2;;;;;;;8;65.68652;911.5414;;;;
2020/12/04 12:14:29;;;;;;;15.1;3.8;;;;;;;8;60.51074;911.5873;;;;
2020/12/04 12:16:55;;;;;;;2.9;1.9;;;;;;;7.9;62.05176;911.6247;;;;
2020/12/04 12:19:20;;;;;;;1.7;1.1;;;;;;;7.59;62.46094;911.5655;;;;
2020/12/04 12:21:47;;;;;;;1.5;1;;;;;;;7.56;63.63477;911.4966;;;;
2020/12/04 12:24:11;;;;;;;2.4;1.1;;;;;;;7.39;63.91406;911.41;;;;
2020/12/04 12:26:39;;;;;;;2.5;1.2;;;;;;;7.51;63.80859;911.5002;;;;
2020/12/04 12:29:05;;;;;;;2.4;1.3;;;;;;;7.45;60.26367;911.4492;;;;
2020/12/04 12:31:31;;;;;;;4.2;1;;;;;;;7.24;60.00781;911.3777;;;;
2020/12/04 12:33:56;;;;;;;1.2;0.8;;;;;;;7.48;60.43555;911.3441;;;;
2020/12/04 12:36:23;;;;;;;1.7;1;;;;;;;7.77;59.74023;911.3384;;;;
2020/12/04 12:38:48;;;;;;;2.6;1.1;;;;;;;7.97;57.19141;911.2942;;;;
2020/12/04 12:41:13;;;;;;;1.3;0.7;;;;;;;7.89;60.1084;911.3017;;;;
2020/12/04 12:43:39;;;;;;;3.7;0.9;;;;;;;7.73;62.26563;911.1905;;;;
2020/12/04 12:46:04;;;;;;;0.7;0.7;;;;;;;7.89;62.54883;911.2011;;;;
2020/12/04 12:48:33;;;;;;;4.6;0.8;;;;;;;7.77;61.97559;911.2512;;;;
2020/12/04 12:50:57;;;;;;;0.8;0.7;;;;;;;7.82;63.56055;911.2876;;;;
2020/12/04 12:53:26;;;;;;;1.4;0.8;;;;;;;7.4;63.75879;911.3077;;;;
2020/12/04 12:55:51;;;;;;;2.8;1.3;;;;;;;7.6;63.19824;911.1569;;;;
2020/12/04 12:58:17;;;;;;;2;1;;;;;;;7.67;62.81055;911.0891;;;;
2020/12/04 13:00:44;;;;;;;2.2;1.1;;;;;;;7.62;63.08691;911.0458;;;;
2020/12/04 13:03:13;;;;;;;4;1.3;;;;;;;7.59;62.45996;911.0659;;;;
2020/12/04 13:05:38;;;;;;;2.1;0.8;;;;;;;7.78;61.58008;911.1124;;;;
2020/12/04 13:08:03;;;;;;;2.7;1.4;;;;;;;7.69;60.97656;911.2151;;;;
2020/12/04 13:10:28;;;;;;;2;1;;;;;;;7.57;60.68652;911.1758;;;;
2020/12/04 13:12:53;;;;;;;1.3;0.9;;;;;;;7.82;61.44824;911.1031;;;;
2020/12/04 13:15:19;;;;;;;4.2;1.3;;;;;;;7.9;62.1084;911.2095;;;;
2020/12/04 13:17:47;;;;;;;2.7;1.8;;;;;;;7.93;61.66992;911.3024;;;;
2020/12/04 13:20:15;;;;;;;2.3;1.3;;;;;;;8.27;61.92188;911.1731;;;;
2020/12/04 13:22:41;;;;;;;1.2;0.8;;;;;;;9.38;57.35645;911.0421;;;;
2020/12/04 13:25:06;;;;;;;1.5;0.8;;;;;;;11.73;50.76563;910.8812;;;;
2020/12/04 13:27:31;;;;;;;1.3;0.8;;;;;;;12.82;47.79395;910.9606;;;;
2020/12/04 13:29:57;;;;;;;1.1;0.7;;;;;;;12.3;47.37012;910.9026;;;;
2020/12/04 13:32:26;;;;;;;2.1;1.1;;;;;;;11.83;48.46289;910.8837;;;;
2020/12/04 13:34:51;;;;;;;1.7;1.4;;;;;;;11.43;48.87598;910.9534;;;;
2020/12/04 13:37:16;;;;;;;3.8;1.2;;;;;;;10.58;50.82422;910.9933;;;;
2020/12/04 13:39:42;;;;;;;2.5;1.3;;;;;;;10.1;51.74902;910.7869;;;;
2020/12/04 13:42:07;;;;;;;5.4;1.8;;;;;;;9.82;53.42578;910.6384;;;;
2020/12/04 13:44:33;;;;;;;1.5;1;;;;;;;10.25;52.875;910.7408;;;;
2020/12/04 13:46:58;;;;;;;2.8;1.9;;;;;;;11.15;50.35449;910.7512;;;;
2020/12/04 13:49:25;;;;;;;4.2;2.1;;;;;;;10.71;50.58887;910.7644;;;;
2020/12/04 13:51:51;;;;;;;1.8;1.2;;;;;;;10.21;52.13867;910.7255;;;;
2020/12/04 13:54:17;;;;;;;1.9;1;;;;;;;8.81;56.00781;910.8311;;;;
2020/12/04 13:56:46;;;;;;;2.1;1.3;;;;;;;7.8;59.68848;910.9741;;;;
2020/12/04 13:59:11;;;;;;;2.3;1.5;;;;;;;7.09;62.94141;911.0207;;;;
2020/12/04 14:01:39;;;;;;;0.5;0.5;;;;;;;6.72;64.95898;910.9163;;;;
2020/12/04 14:04:09;;;;;;;22.3;10.2;;;;;;;6.34;66.03125;910.9092;;;;
2020/12/04 14:06:35;;;;;;;17.1;9;;;;;;;5.89;67.96191;910.8811;;;;
2020/12/04 14:09:07;;;;;;;5;2.6;;;;;;;5.68;69.0918;910.8733;;;;
2020/12/04 14:11:33;;;;;;;3.1;1.8;;;;;;;5.47;70.00488;910.7779;;;;
2020/12/04 14:13:58;;;;;;;4.8;2.3;;;;;;;5.26;71.24512;910.7178;;;;
2020/12/04 14:16:24;;;;;;;2.3;1.7;;;;;;;5.53;70.5791;910.84;;;;
2020/12/04 14:18:49;;;;;;;4.7;2.6;;;;;;;5.13;71.97949;910.8583;;;;
2020/12/04 14:21:16;;;;;;;16.4;6;;;;;;;5.02;72.41016;910.9807;;;;
2020/12/04 14:23:41;;;;;;;3.9;2.1;;;;;;;4.87;73.88477;910.8816;;;;
2020/12/04 14:26:09;;;;;;;5.1;2.6;;;;;;;5.15;72.81836;910.9835;;;;
2020/12/04 14:28:34;;;;;;;6.4;3.5;;;;;;;5.32;72.10156;911.0648;;;;
2020/12/04 14:31:01;;;;;;;5.4;2.6;;;;;;;5.2;73.15137;911.0104;;;;
2020/12/04 14:33:26;;;;;;;5.9;2.2;;;;;;;5.14;73.49023;911.0286;;;;
2020/12/04 14:35:51;;;;;;;4.5;2.1;;;;;;;5.28;72.7832;911.0591;;;;
2020/12/04 14:39:03;;;;;;;6.4;2.2;;;;;;;5.1;73.22461;911.052;;;;
2020/12/04 14:40:42;;;;;;;3.6;1.7;;;;;;;5.11;73.48535;911.1024;;;;
2020/12/04 14:43:08;;;;;;;5.1;2.5;;;;;;;5.15;73.42578;910.9456;;;;
2020/12/04 14:45:33;;;;;;;3.7;2.6;;;;;;;5.29;72.80566;910.9453;;;;
2020/12/04 14:47:59;;;;;;;5.8;2.1;;;;;;;5.33;72.53223;911.0283;;;;
2020/12/04 14:50:24;;;;;;;3.7;1.8;;;;;;;5.34;72.10352;911.1269;;;;
2020/12/04 14:52:51;;;;;;;3.6;2.4;;;;;;;5.09;73.17773;911.0971;;;;
2020/12/04 14:55:16;;;;;;;4.4;2.6;;;;;;;5.12;73.09375;911.0328;;;;
2020/12/04 14:57:43;;;;;;;4.9;2.8;;;;;;;5.32;72.21289;911.0388;;;;
2020/12/04 15:00:08;;;;;;;5.3;3.5;;;;;;;5.16;72.52539;911.1016;;;;
2020/12/04 15:02:33;;;;;;;5.8;3.7;;;;;;;5.09;73.22363;910.9749;;;;
2020/12/04 15:04:58;;;;;;;11.4;3.8;;;;;;;5.02;73.74023;910.9609;;;;
2020/12/04 15:07:24;;;;;;;4.7;2.9;;;;;;;4.94;74.79688;911.0406;;;;
2020/12/04 15:09:50;;;;;;;5.5;3.4;;;;;;;4.91;74.36426;910.9285;;;;
2020/12/04 15:12:15;;;;;;;4.6;2.7;;;;;;;4.86;74.5459;911.041;;;;
2020/12/04 15:14:42;;;;;;;11.9;3.3;;;;;;;4.69;75.57813;911.0846;;;;
2020/12/04 15:17:08;;;;;;;3.4;2.5;;;;;;;4.48;76.4502;911.1887;;;;
2020/12/04 15:19:34;;;;;;;4.9;3.1;;;;;;;4.29;77.2959;911.2205;;;;
2020/12/04 15:21:59;;;;;;;5.2;2.6;;;;;;;4.07;77.84082;911.1384;;;;
2020/12/04 15:24:25;;;;;;;4.6;2.8;;;;;;;4.16;77.75684;911.1437;;;;
2020/12/04 15:26:50;;;;;;;3.4;2.3;;;;;;;4.07;78.00684;911.0306;;;;
2020/12/04 15:29:16;;;;;;;3.1;2.1;;;;;;;4.07;78.37793;911.0258;;;;
2020/12/04 15:31:41;;;;;;;4;2.6;;;;;;;4.03;78.30664;911.038;;;;
2020/12/04 15:34:09;;;;;;;2.4;1.7;;;;;;;4.03;78.39355;911.1255;;;;
2020/12/04 15:36:35;;;;;;;2.5;1.8;;;;;;;4.15;77.83203;911.158;;;;
2020/12/04 15:39:00;;;;;;;3.8;2.6;;;;;;;3.94;78.60352;911.1166;;;;
2020/12/04 15:41:25;;;;;;;4.2;2.7;;;;;;;3.86;78.81348;911.0302;;;;